createdAt,value
2018-08-14T00:04:38.375Z,2.30
2018-08-14T00:09:42.195Z,2.40
2018-08-14T00:14:45.522Z,2.50
2018-08-14T00:19:48.831Z,2.17
2018-08-14T00:24:52.254Z,2.37
2018-08-14T00:29:55.536Z,2.00
2018-08-14T00:34:58.929Z,2.33
2018-08-14T00:40:02.286Z,2.07
2018-08-14T00:45:07.695Z,2.27
2018-08-14T00:50:11.930Z,2.63
2018-08-14T00:55:16.521Z,2.77
2018-08-14T01:00:25.314Z,2.67
2018-08-14T01:05:28.770Z,2.20
2018-08-14T01:10:32.038Z,2.47
2018-08-14T01:15:35.374Z,2.10
2018-08-14T01:20:47.876Z,2.20
2018-08-14T01:25:51.302Z,2.87
2018-08-14T01:30:54.786Z,2.37
2018-08-14T01:35:58.183Z,2.80
2018-08-14T01:41:01.577Z,2.57
2018-08-14T01:46:04.894Z,2.80
2018-08-14T01:51:08.401Z,3.13
2018-08-14T01:56:11.753Z,3.13
2018-08-14T02:01:15.060Z,2.57
2018-08-14T02:06:18.400Z,3.10
2018-08-14T02:11:21.808Z,3.73
2018-08-14T02:16:25.203Z,3.57
2018-08-14T02:21:28.527Z,3.60
2018-08-14T02:26:31.821Z,2.67
2018-08-14T02:31:35.237Z,3.80
2018-08-14T02:36:38.638Z,3.97
2018-08-14T02:41:42.003Z,3.67
2018-08-14T02:46:45.457Z,3.70
2018-08-14T02:51:48.860Z,2.83
2018-08-14T02:56:52.194Z,3.20
2018-08-14T03:01:55.534Z,2.90
2018-08-14T03:06:58.827Z,3.40
2018-08-14T03:12:02.102Z,2.80
2018-08-14T03:17:05.926Z,3.13
2018-08-14T03:22:09.187Z,2.97
2018-08-14T03:27:19.267Z,2.67
2018-08-14T03:32:22.539Z,3.20
2018-08-14T03:37:25.909Z,2.90
2018-08-14T03:42:29.328Z,3.33
2018-08-14T03:47:32.662Z,3.07
2018-08-14T03:52:36.055Z,3.03
2018-08-14T03:57:39.486Z,3.13
2018-08-14T04:02:42.821Z,3.37
2018-08-14T04:07:46.160Z,3.53
2018-08-14T04:12:49.719Z,4.17
2018-08-14T04:17:57.879Z,3.63
2018-08-14T04:23:01.185Z,4.07
2018-08-14T04:28:04.492Z,3.60
2018-08-14T04:33:07.967Z,4.30
2018-08-14T04:38:11.400Z,3.93
2018-08-14T04:43:14.759Z,4.53
2018-08-14T04:48:18.139Z,6.17
2018-08-14T04:53:21.452Z,6.00
2018-08-14T04:58:24.811Z,6.03
2018-08-14T05:03:28.201Z,5.63
2018-08-14T05:08:32.074Z,6.33
2018-08-14T05:13:38.738Z,6.20
2018-08-14T05:18:42.092Z,5.70
2018-08-14T05:23:45.978Z,6.67
2018-08-14T05:28:49.326Z,6.83
2018-08-14T05:33:52.727Z,8.23
2018-08-14T05:38:55.979Z,7.13
2018-08-14T05:43:59.293Z,6.50
2018-08-14T05:49:02.627Z,7.40
2018-08-14T05:54:06.071Z,7.23
2018-08-14T05:59:09.856Z,5.67
2018-08-14T06:04:13.300Z,7.50
2018-08-14T06:09:16.654Z,7.20
2018-08-14T06:14:19.940Z,6.83
2018-08-14T06:19:23.314Z,6.93
2018-08-14T06:24:26.711Z,6.87
2018-08-14T06:29:30.217Z,8.53
2018-08-14T06:34:33.543Z,9.20
2018-08-14T06:39:36.830Z,9.33
2018-08-14T06:44:40.259Z,9.60
2018-08-14T06:49:43.546Z,7.73
2018-08-14T06:54:47.024Z,8.73
2018-08-14T06:59:50.358Z,8.43
2018-08-14T07:04:53.690Z,8.20
2018-08-14T07:09:56.963Z,8.73
2018-08-14T07:15:00.250Z,9.50
2018-08-14T07:20:03.838Z,8.30
2018-08-14T07:25:07.142Z,8.20
2018-08-14T07:30:13.268Z,8.10
2018-08-14T07:35:16.820Z,8.40
2018-08-14T07:40:20.126Z,9.13
2018-08-14T07:45:23.658Z,9.40
2018-08-14T07:50:27.034Z,11.07
2018-08-14T07:55:30.466Z,8.30
2018-08-14T08:00:33.850Z,9.67
2018-08-14T08:05:37.122Z,9.27
2018-08-14T08:10:40.442Z,8.43
2018-08-14T08:15:43.686Z,8.77
2018-08-14T08:20:47.009Z,9.63
2018-08-14T08:25:50.303Z,8.63
2018-08-14T08:30:53.606Z,7.40
2018-08-14T08:35:57.104Z,8.80
2018-08-14T08:41:00.347Z,8.80
2018-08-14T08:46:03.687Z,9.03
2018-08-14T08:51:07.064Z,6.23
2018-08-14T08:56:10.395Z,6.50
2018-08-14T09:01:13.674Z,5.90
2018-08-14T09:06:16.981Z,6.20
2018-08-14T09:11:20.306Z,5.90
2018-08-14T09:16:23.570Z,5.93
2018-08-14T09:21:26.858Z,5.90
2018-08-14T09:26:30.434Z,6.23
2018-08-14T09:31:33.703Z,5.20
2018-08-14T09:36:36.994Z,5.23
2018-08-14T09:41:40.278Z,4.50
2018-08-14T09:46:43.582Z,5.03
2018-08-14T09:51:46.863Z,3.70
2018-08-14T09:56:50.237Z,3.90
2018-08-14T10:01:58.715Z,3.80
2018-08-14T10:07:25.519Z,4.40
2018-08-14T10:12:28.839Z,4.27
2018-08-14T10:17:32.243Z,4.27
2018-08-14T10:22:35.501Z,4.77
2018-08-14T10:27:39.669Z,3.60
2018-08-14T10:32:43.678Z,3.23
2018-08-14T10:37:46.981Z,3.30
2018-08-14T10:42:50.350Z,3.53
2018-08-14T10:47:53.651Z,2.70
2018-08-14T10:52:56.921Z,3.20
2018-08-14T10:58:00.290Z,3.10
2018-08-14T11:03:03.549Z,3.60
2018-08-14T11:08:06.925Z,3.67
2018-08-14T11:13:10.182Z,3.27
2018-08-14T11:18:13.535Z,3.20
2018-08-14T11:23:16.955Z,3.73
2018-08-14T11:28:20.294Z,4.00
2018-08-14T11:33:23.570Z,4.13
2018-08-14T11:38:26.853Z,4.60
2018-08-14T11:43:30.163Z,4.73
2018-08-14T11:48:33.457Z,4.10
2018-08-14T11:53:36.716Z,3.87
2018-08-14T11:58:40.095Z,6.23
2018-08-14T12:03:43.354Z,5.70
2018-08-14T12:08:46.636Z,7.33
2018-08-14T12:13:49.942Z,4.83
2018-08-14T12:18:53.202Z,5.07
2018-08-14T12:23:56.517Z,5.60
2018-08-14T12:28:59.784Z,5.10
2018-08-14T12:34:03.166Z,5.13
2018-08-14T12:39:08.130Z,5.00
2018-08-14T12:44:11.435Z,4.80
2018-08-14T12:49:14.782Z,4.37
2018-08-14T12:54:18.248Z,5.77
2018-08-14T12:59:21.558Z,5.03
2018-08-14T13:04:24.846Z,4.53
2018-08-14T13:09:28.126Z,4.43
2018-08-14T13:14:31.430Z,4.27
2018-08-14T13:19:34.740Z,3.50
2018-08-14T13:24:38.002Z,3.33
2018-08-14T13:29:41.287Z,3.20
2018-08-14T13:34:44.550Z,3.60
2018-08-14T13:39:47.963Z,3.30
2018-08-14T13:44:51.285Z,3.60
2018-08-14T13:49:54.571Z,5.77
2018-08-14T13:54:57.876Z,5.10
2018-08-14T14:00:01.228Z,6.80
2018-08-14T14:05:06.292Z,5.80
2018-08-14T14:10:11.545Z,6.37
2018-08-14T14:15:19.438Z,5.57
2018-08-14T14:20:24.149Z,5.27
2018-08-14T14:25:27.526Z,5.27
2018-08-14T14:30:30.808Z,4.57
2018-08-14T14:35:34.090Z,4.20
2018-08-14T14:40:37.854Z,5.60
2018-08-14T14:45:41.210Z,4.70
2018-08-14T14:50:44.523Z,4.90
2018-08-14T14:55:47.807Z,4.93
2018-08-14T15:00:51.115Z,4.70
2018-08-14T15:05:54.439Z,4.17
2018-08-14T15:10:57.755Z,4.17
2018-08-14T15:16:01.046Z,4.00
2018-08-14T15:21:04.391Z,4.40
2018-08-14T15:26:08.774Z,4.37
2018-08-14T15:31:12.100Z,4.27
2018-08-14T15:36:15.475Z,3.80
2018-08-14T15:41:18.974Z,3.53
2018-08-14T15:46:22.338Z,3.40
2018-08-14T15:51:25.699Z,3.57
2018-08-14T15:56:29.076Z,3.33
2018-08-14T16:01:33.110Z,3.17
2018-08-14T16:06:36.444Z,3.13
2018-08-14T16:11:39.808Z,3.20
2018-08-14T16:16:43.299Z,2.87
2018-08-14T16:21:46.733Z,2.83
2018-08-14T16:26:50.033Z,3.67
2018-08-14T16:31:53.417Z,3.77
2018-08-14T16:36:56.730Z,3.73
2018-08-14T16:42:00.199Z,3.57
2018-08-14T16:47:03.700Z,4.00
2018-08-14T16:52:07.275Z,3.47
2018-08-14T16:57:10.627Z,3.63
2018-08-14T17:02:14.408Z,4.93
2018-08-14T17:07:17.900Z,4.17
2018-08-14T17:12:21.507Z,4.40
2018-08-14T17:17:27.861Z,4.90
2018-08-14T17:22:31.308Z,5.27
2018-08-14T17:27:34.700Z,5.90
2018-08-14T17:32:38.129Z,5.20
2018-08-14T17:37:41.550Z,5.67
2018-08-14T17:42:45.215Z,5.70
2018-08-14T17:47:49.463Z,5.90
2018-08-14T17:52:53.057Z,5.40
2018-08-14T17:57:56.844Z,5.67
2018-08-14T18:03:02.002Z,5.90
2018-08-14T18:08:06.846Z,5.63
2018-08-14T18:13:10.224Z,5.80
2018-08-14T18:18:13.540Z,5.50
2018-08-14T18:23:17.034Z,5.70
2018-08-14T18:28:20.726Z,5.10
2018-08-14T18:33:24.123Z,5.50
2018-08-14T18:38:27.544Z,5.27
2018-08-14T18:43:30.901Z,4.77
2018-08-14T18:48:34.201Z,4.97
2018-08-14T18:53:37.594Z,4.73
2018-08-14T18:58:40.916Z,4.43
2018-08-14T19:03:44.279Z,4.33
2018-08-14T19:08:48.079Z,4.30
2018-08-14T19:13:51.378Z,4.33
2018-08-14T19:18:54.767Z,3.90
2018-08-14T19:23:58.169Z,4.33
2018-08-14T19:29:01.501Z,4.00
2018-08-14T19:34:05.088Z,3.83
2018-08-14T19:39:10.727Z,3.97
2018-08-14T19:44:14.690Z,4.10
2018-08-14T19:49:18.013Z,3.97
2018-08-14T19:54:21.443Z,3.30
2018-08-14T19:59:25.024Z,2.97
2018-08-14T20:04:28.500Z,2.67
2018-08-14T20:09:31.877Z,2.83
2018-08-14T20:14:35.397Z,2.27
2018-08-14T20:19:38.881Z,2.63
2018-08-14T20:24:42.919Z,2.10
2018-08-14T20:29:46.350Z,2.43
2018-08-14T20:34:49.755Z,2.33
2018-08-14T20:39:53.059Z,2.40
2018-08-14T20:44:56.316Z,2.37
2018-08-14T20:49:59.639Z,2.30
2018-08-14T20:55:02.988Z,2.40
2018-08-14T21:00:06.502Z,2.47
2018-08-14T21:05:09.910Z,2.17
2018-08-14T21:10:13.435Z,2.43
2018-08-14T21:16:20.068Z,2.57
2018-08-14T21:21:23.650Z,2.67
2018-08-14T21:26:26.912Z,2.50
2018-08-14T21:31:30.224Z,2.00
2018-08-14T21:36:33.507Z,2.20
2018-08-14T21:41:36.787Z,2.50
2018-08-14T21:46:40.110Z,2.07
2018-08-14T21:51:43.435Z,2.23
2018-08-14T21:56:46.760Z,2.00
2018-08-14T22:01:51.068Z,2.50
2018-08-14T22:06:54.350Z,2.17
2018-08-14T22:11:57.636Z,2.17
2018-08-14T22:17:00.902Z,1.83
2018-08-14T22:22:04.334Z,1.93
2018-08-14T22:27:07.666Z,2.30
2018-08-14T22:32:10.947Z,2.30
2018-08-14T22:37:14.290Z,2.70
2018-08-14T22:42:17.619Z,2.50
2018-08-14T22:47:21.089Z,2.97
2018-08-14T22:52:24.351Z,3.00
2018-08-14T22:57:27.846Z,2.53
2018-08-14T23:02:31.159Z,3.20
2018-08-14T23:07:34.459Z,2.73
2018-08-14T23:12:37.808Z,2.60
2018-08-14T23:17:41.212Z,3.20
2018-08-14T23:22:44.467Z,3.03
2018-08-14T23:27:47.742Z,3.17
2018-08-14T23:32:51.014Z,3.23
2018-08-14T23:37:54.329Z,3.50
2018-08-14T23:42:57.586Z,2.93
2018-08-14T23:48:00.905Z,3.40
2018-08-14T23:53:04.165Z,3.33
2018-08-14T23:58:07.539Z,3.20
